createdAt,value
2022-12-25T00:01:28.339Z,1.10
2022-12-25T00:03:56.610Z,1.67
2022-12-25T00:06:23.250Z,1.10
2022-12-25T00:08:49.730Z,2.20
2022-12-25T00:11:17.612Z,2.47
2022-12-25T00:13:44.313Z,2.03
2022-12-25T00:16:22.356Z,2.28
2022-12-25T00:18:48.947Z,2.03
2022-12-25T00:21:15.597Z,1.65
2022-12-25T00:23:42.222Z,2.03
2022-12-25T00:26:13.611Z,1.77
2022-12-25T00:28:40.108Z,2.00
2022-12-25T00:31:11.455Z,1.80
2022-12-25T00:33:39.030Z,1.80
2022-12-25T00:36:06.327Z,1.80
2022-12-25T00:38:33.385Z,2.20
2022-12-25T00:40:59.865Z,1.65
2022-12-25T00:43:26.328Z,2.10
2022-12-25T00:45:59.839Z,1.75
2022-12-25T00:48:26.487Z,1.50
2022-12-25T00:50:54.199Z,1.80
2022-12-25T00:53:20.672Z,1.63
2022-12-25T00:55:54.191Z,1.92
2022-12-25T00:58:20.695Z,1.67
2022-12-25T01:00:47.712Z,1.60
2022-12-25T01:03:14.320Z,1.88
2022-12-25T01:05:40.793Z,1.85
2022-12-25T01:08:07.319Z,1.83
2022-12-25T01:10:33.768Z,1.45
2022-12-25T01:13:00.251Z,1.60
2022-12-25T01:15:26.716Z,1.70
2022-12-25T01:17:53.184Z,1.60
2022-12-25T01:20:19.659Z,1.63
2022-12-25T01:22:46.104Z,1.65
2022-12-25T01:25:12.647Z,1.42
2022-12-25T01:27:40.779Z,1.60
2022-12-25T01:30:07.650Z,1.65
2022-12-25T01:32:34.148Z,1.52
2022-12-25T01:35:00.663Z,1.88
2022-12-25T01:37:27.118Z,1.80
2022-12-25T01:39:53.588Z,1.60
2022-12-25T01:42:21.298Z,1.40
2022-12-25T01:44:47.593Z,1.40
2022-12-25T01:47:14.082Z,1.50
2022-12-25T01:49:42.476Z,1.55
2022-12-25T01:52:17.484Z,1.50
2022-12-25T01:54:47.872Z,1.50
2022-12-25T01:57:19.493Z,1.80
2022-12-25T01:59:46.109Z,1.60
2022-12-25T02:02:12.632Z,1.40
2022-12-25T02:04:48.510Z,1.63
2022-12-25T02:07:19.341Z,1.60
2022-12-25T02:09:45.817Z,1.27
2022-12-25T02:12:17.870Z,1.65
2022-12-25T02:14:44.323Z,1.27
2022-12-25T02:17:23.503Z,1.48
2022-12-25T02:20:11.208Z,1.35
2022-12-25T02:23:04.529Z,1.70
2022-12-25T02:25:30.818Z,1.35
2022-12-25T02:28:30.864Z,1.45
2022-12-25T02:31:07.049Z,1.63
2022-12-25T02:34:01.582Z,1.42
2022-12-25T02:36:32.747Z,1.15
2022-12-25T02:39:18.431Z,1.23
2022-12-25T02:41:45.130Z,1.23
2022-12-25T02:44:33.917Z,1.20
2022-12-25T02:47:19.443Z,1.13
2022-12-25T02:50:04.483Z,1.30
2022-12-25T02:52:49.590Z,1.27
2022-12-25T02:55:39.672Z,1.17
2022-12-25T02:58:41.532Z,1.35
2022-12-25T03:01:29.749Z,1.05
2022-12-25T03:04:16.033Z,1.50
2022-12-25T03:06:42.840Z,1.40
2022-12-25T03:09:31.005Z,1.38
2022-12-25T03:12:02.401Z,1.30
2022-12-25T03:14:47.489Z,1.20
2022-12-25T03:17:13.987Z,1.10
2022-12-25T03:19:59.031Z,1.30
2022-12-25T03:22:48.501Z,1.23
2022-12-25T03:25:34.178Z,1.30
2022-12-25T03:28:00.751Z,1.50
2022-12-25T03:31:11.431Z,1.17
2022-12-25T03:34:34.051Z,1.35
2022-12-25T03:37:28.322Z,0.85
2022-12-25T03:39:57.691Z,1.17
2022-12-25T03:42:54.347Z,1.20
2022-12-25T03:45:55.091Z,1.33
2022-12-25T03:48:40.064Z,1.20
2022-12-25T03:51:28.632Z,1.10
2022-12-25T03:54:15.420Z,0.90
2022-12-25T03:57:00.478Z,1.13
2022-12-25T03:59:45.859Z,1.02
2022-12-25T04:02:30.789Z,1.10
2022-12-25T04:05:16.038Z,1.30
2022-12-25T04:08:01.031Z,1.15
2022-12-25T04:10:45.784Z,1.20
2022-12-25T04:13:30.593Z,1.13
2022-12-25T04:16:16.330Z,0.90
2022-12-25T04:19:01.607Z,0.90
2022-12-25T04:21:46.468Z,1.15
2022-12-25T04:24:31.969Z,0.90
2022-12-25T04:27:16.819Z,1.10
2022-12-25T04:30:01.459Z,0.98
2022-12-25T04:32:46.286Z,1.10
2022-12-25T04:35:31.484Z,1.00
2022-12-25T04:37:57.932Z,1.10
2022-12-25T04:40:24.422Z,0.93
2022-12-25T04:42:51.487Z,0.95
2022-12-25T04:45:17.990Z,0.75
2022-12-25T04:47:44.464Z,0.90
2022-12-25T04:50:11.044Z,1.10
2022-12-25T04:52:38.307Z,1.20
2022-12-25T04:55:05.367Z,0.95
2022-12-25T04:57:32.475Z,0.80
2022-12-25T04:59:58.941Z,1.23
2022-12-25T05:02:25.848Z,1.15
2022-12-25T05:04:52.528Z,0.98
2022-12-25T05:07:18.990Z,0.80
2022-12-25T05:09:45.466Z,1.08
2022-12-25T05:12:11.919Z,0.90
2022-12-25T05:14:39.927Z,0.98
2022-12-25T05:17:07.875Z,1.08
2022-12-25T05:19:34.673Z,1.13
2022-12-25T05:22:01.131Z,0.90
2022-12-25T05:24:27.852Z,0.93
2022-12-25T05:26:54.591Z,1.08
2022-12-25T05:29:21.047Z,1.00
2022-12-25T05:31:47.563Z,0.85
2022-12-25T05:34:14.095Z,0.82
2022-12-25T05:36:40.720Z,0.93
2022-12-25T05:39:07.183Z,0.95
2022-12-25T05:41:34.764Z,1.08
2022-12-25T05:44:01.555Z,0.82
2022-12-25T05:46:28.040Z,0.82
2022-12-25T05:48:54.505Z,0.73
2022-12-25T05:51:21.044Z,0.80
2022-12-25T05:53:47.511Z,0.80
2022-12-25T05:56:14.003Z,1.10
2022-12-25T05:58:40.628Z,1.00
2022-12-25T06:01:13.853Z,0.90
2022-12-25T06:03:40.501Z,0.90
2022-12-25T06:06:07.350Z,0.90
2022-12-25T06:08:34.432Z,0.90
2022-12-25T06:11:04.736Z,0.75
2022-12-25T06:13:31.726Z,1.10
2022-12-25T06:15:59.068Z,0.90
2022-12-25T06:18:26.394Z,0.50
2022-12-25T06:20:53.141Z,0.95
2022-12-25T06:23:19.634Z,0.80
2022-12-25T06:25:46.164Z,1.00
2022-12-25T06:28:12.842Z,1.10
2022-12-25T06:30:39.320Z,0.90
2022-12-25T06:33:05.780Z,0.80
2022-12-25T06:35:32.574Z,0.63
2022-12-25T06:37:59.075Z,0.80
2022-12-25T06:40:25.548Z,0.75
2022-12-25T06:42:52.310Z,0.80
2022-12-25T06:45:18.785Z,0.70
2022-12-25T06:47:45.478Z,0.80
2022-12-25T06:50:11.960Z,0.85
2022-12-25T06:52:38.419Z,1.20
2022-12-25T06:55:06.383Z,0.80
2022-12-25T06:57:32.972Z,0.70
2022-12-25T06:59:59.487Z,0.70
2022-12-25T07:02:26.117Z,0.70
2022-12-25T07:04:52.712Z,0.70
2022-12-25T07:07:19.934Z,0.80
2022-12-25T07:09:46.392Z,0.60
2022-12-25T07:12:18.419Z,0.75
2022-12-25T07:14:48.546Z,0.75
2022-12-25T07:17:16.112Z,0.90
2022-12-25T07:19:45.205Z,0.75
2022-12-25T07:22:12.541Z,0.68
2022-12-25T07:24:39.086Z,0.80
2022-12-25T07:27:05.568Z,0.50
2022-12-25T07:29:32.307Z,0.80
2022-12-25T07:31:58.872Z,1.00
2022-12-25T07:34:25.409Z,0.93
2022-12-25T07:36:51.874Z,0.50
2022-12-25T07:39:18.369Z,0.77
2022-12-25T07:41:44.875Z,0.82
2022-12-25T07:44:11.329Z,0.88
2022-12-25T07:46:37.801Z,0.60
2022-12-25T07:49:04.302Z,0.90
2022-12-25T07:51:30.789Z,0.70
2022-12-25T07:53:57.253Z,0.80
2022-12-25T07:56:23.773Z,0.60
2022-12-25T07:58:50.340Z,0.80
2022-12-25T08:01:20.302Z,0.70
2022-12-25T08:03:57.401Z,0.80
2022-12-25T08:06:26.740Z,0.60
2022-12-25T08:08:53.242Z,0.82
2022-12-25T08:11:19.756Z,0.60
2022-12-25T08:13:46.235Z,0.60
2022-12-25T08:16:12.776Z,0.60
2022-12-25T08:18:39.420Z,0.77
2022-12-25T08:21:10.722Z,0.70
2022-12-25T08:23:38.659Z,0.50
2022-12-25T08:26:05.971Z,0.73
2022-12-25T08:28:32.901Z,0.47
2022-12-25T08:30:59.437Z,0.63
2022-12-25T08:33:25.928Z,0.70
2022-12-25T08:35:52.414Z,0.63
2022-12-25T08:38:18.908Z,0.80
2022-12-25T08:40:45.363Z,0.68
2022-12-25T08:43:11.858Z,0.75
2022-12-25T08:45:38.419Z,0.50
2022-12-25T08:48:04.895Z,0.70
2022-12-25T08:50:31.339Z,0.65
2022-12-25T08:52:57.801Z,0.70
2022-12-25T08:55:24.261Z,0.60
2022-12-25T08:57:53.209Z,1.00
2022-12-25T09:00:19.918Z,0.90
2022-12-25T09:02:46.492Z,0.82
2022-12-25T09:05:13.104Z,0.75
2022-12-25T09:07:39.606Z,0.80
2022-12-25T09:10:06.744Z,0.68
2022-12-25T09:12:33.272Z,1.15
2022-12-25T09:14:59.726Z,0.93
2022-12-25T09:17:26.204Z,1.10
2022-12-25T09:19:52.677Z,1.35
2022-12-25T09:22:19.425Z,1.50
2022-12-25T09:24:45.906Z,1.42
2022-12-25T09:27:12.431Z,1.70
2022-12-25T09:29:39.161Z,1.27
2022-12-25T09:32:06.045Z,1.33
2022-12-25T09:34:32.732Z,1.63
2022-12-25T09:36:59.229Z,1.30
2022-12-25T09:39:26.822Z,1.27
2022-12-25T09:41:56.559Z,1.45
2022-12-25T09:44:25.525Z,1.48
2022-12-25T09:47:11.965Z,1.38
2022-12-25T09:49:52.852Z,1.55
2022-12-25T09:52:25.613Z,1.38
2022-12-25T09:55:19.732Z,2.15
2022-12-25T09:57:49.766Z,3.20
2022-12-25T10:00:18.091Z,3.42
2022-12-25T10:03:14.525Z,3.40
2022-12-25T10:06:17.455Z,3.25
2022-12-25T10:09:06.183Z,3.00
2022-12-25T10:11:41.736Z,3.22
2022-12-25T10:14:18.566Z,2.60
2022-12-25T10:17:18.468Z,2.60
2022-12-25T10:19:56.485Z,3.05
2022-12-25T10:22:50.155Z,2.75
2022-12-25T10:25:18.666Z,2.58
2022-12-25T10:27:45.170Z,2.90
2022-12-25T10:30:23.369Z,4.03
2022-12-25T10:32:49.904Z,6.18
2022-12-25T10:35:18.630Z,7.70
2022-12-25T10:37:48.795Z,8.82
2022-12-25T10:40:24.470Z,9.93
2022-12-25T10:42:57.308Z,11.00
2022-12-25T10:45:23.773Z,12.65
2022-12-25T10:47:59.528Z,12.63
2022-12-25T10:50:28.711Z,13.55
2022-12-25T10:53:04.720Z,16.70
2022-12-25T10:55:31.975Z,16.42
2022-12-25T10:57:58.624Z,16.92
2022-12-25T11:00:30.209Z,16.67
2022-12-25T11:02:57.050Z,17.55
2022-12-25T11:05:25.738Z,18.00
2022-12-25T11:07:56.201Z,19.08
2022-12-25T11:10:33.925Z,23.10
2022-12-25T11:13:00.483Z,35.55
2022-12-25T11:15:40.421Z,33.58
2022-12-25T11:18:25.926Z,33.13
2022-12-25T11:21:04.006Z,30.55
2022-12-25T11:23:31.478Z,28.30
2022-12-25T11:26:05.156Z,26.42
2022-12-25T11:28:32.757Z,26.83
2022-12-25T11:31:07.836Z,25.60
2022-12-25T11:33:59.171Z,23.17
2022-12-25T11:36:32.728Z,23.58
2022-12-25T11:39:16.628Z,21.58
2022-12-25T11:41:49.512Z,20.63
2022-12-25T11:44:26.474Z,21.30
2022-12-25T11:46:55.238Z,19.83
2022-12-25T11:49:25.406Z,18.58
2022-12-25T11:51:54.612Z,18.05
2022-12-25T11:54:29.345Z,19.20
2022-12-25T11:57:05.051Z,17.85
2022-12-25T11:59:35.383Z,16.23
2022-12-25T12:02:22.265Z,15.65
2022-12-25T12:04:50.928Z,16.33
2022-12-25T12:07:26.384Z,14.60
2022-12-25T12:10:16.112Z,14.65
2022-12-25T12:13:27.111Z,13.80
2022-12-25T12:15:53.622Z,13.88
2022-12-25T12:18:28.577Z,13.18
2022-12-25T12:21:21.804Z,13.02
2022-12-25T12:24:12.423Z,12.65
2022-12-25T12:26:40.831Z,12.77
2022-12-25T12:29:08.991Z,12.20
2022-12-25T12:31:42.474Z,10.52
2022-12-25T12:34:18.605Z,11.10
2022-12-25T12:36:45.038Z,10.35
2022-12-25T12:39:20.749Z,9.75
2022-12-25T12:41:48.059Z,8.73
2022-12-25T12:44:14.608Z,9.63
2022-12-25T12:46:53.062Z,8.85
2022-12-25T12:49:24.922Z,8.93
2022-12-25T12:52:02.155Z,8.80
2022-12-25T12:54:28.585Z,8.60
2022-12-25T12:57:01.864Z,7.20
2022-12-25T12:59:40.159Z,7.60
2022-12-25T13:02:13.457Z,7.40
2022-12-25T13:04:53.779Z,6.88
2022-12-25T13:07:32.369Z,8.15
2022-12-25T13:10:13.350Z,9.05
2022-12-25T13:12:39.788Z,9.57
2022-12-25T13:15:11.983Z,9.90
2022-12-25T13:17:38.452Z,11.50
2022-12-25T13:20:05.494Z,10.73
2022-12-25T13:22:35.614Z,11.57
2022-12-25T13:25:05.208Z,14.02
2022-12-25T13:27:32.684Z,13.70
2022-12-25T13:29:59.156Z,13.65
2022-12-25T13:32:30.052Z,14.82
2022-12-25T13:34:56.519Z,14.50
2022-12-25T13:37:24.420Z,16.23
2022-12-25T13:39:56.912Z,17.77
2022-12-25T13:42:26.700Z,21.15
2022-12-25T13:44:58.608Z,21.00
2022-12-25T13:47:37.783Z,19.25
2022-12-25T13:50:15.785Z,19.70
2022-12-25T13:52:42.440Z,18.88
2022-12-25T13:55:16.396Z,18.88
2022-12-25T13:57:50.384Z,17.38
2022-12-25T14:00:41.491Z,16.15
2022-12-25T14:03:08.010Z,15.60
2022-12-25T14:05:42.981Z,14.35
2022-12-25T14:08:14.786Z,14.05
2022-12-25T14:10:41.221Z,13.05
2022-12-25T14:13:11.163Z,12.10
2022-12-25T14:15:38.239Z,12.27
2022-12-25T14:18:04.668Z,10.90
2022-12-25T14:20:34.968Z,10.55
2022-12-25T14:23:01.395Z,11.88
2022-12-25T14:25:35.420Z,10.52
2022-12-25T14:30:31.802Z,10.48
2022-12-25T14:32:58.508Z,10.90
2022-12-25T14:35:25.320Z,10.93
2022-12-25T14:37:56.811Z,10.60
2022-12-25T14:40:30.954Z,10.93
2022-12-25T14:42:58.056Z,9.77
2022-12-25T14:45:32.139Z,9.10
2022-12-25T14:48:04.161Z,9.57
2022-12-25T14:50:34.317Z,9.43
2022-12-25T14:53:00.851Z,5.65
2022-12-25T14:55:28.400Z,6.95
2022-12-25T14:58:00.087Z,6.07
2022-12-25T15:00:35.461Z,5.72
2022-12-25T15:03:03.064Z,5.38
2022-12-25T15:05:34.401Z,4.85
2022-12-25T15:08:21.403Z,4.78
2022-12-25T15:11:03.891Z,5.18
2022-12-25T15:13:30.860Z,4.45
2022-12-25T15:16:01.558Z,4.30
2022-12-25T15:18:31.679Z,4.40
2022-12-25T15:20:58.167Z,4.50
2022-12-25T15:23:25.626Z,4.07
2022-12-25T15:25:52.333Z,4.20
2022-12-25T15:28:18.920Z,4.07
2022-12-25T15:30:45.440Z,3.65
2022-12-25T15:33:14.510Z,3.90
2022-12-25T15:35:40.976Z,3.78
2022-12-25T15:38:07.470Z,3.88
2022-12-25T15:40:34.671Z,4.25
2022-12-25T15:43:10.732Z,4.28
2022-12-25T15:45:40.832Z,3.47
2022-12-25T15:48:07.289Z,3.70
2022-12-25T15:50:36.754Z,3.67
2022-12-25T15:53:03.369Z,3.55
2022-12-25T15:55:29.866Z,3.75
2022-12-25T15:57:56.336Z,2.70
2022-12-25T16:00:22.849Z,3.22
2022-12-25T16:02:49.883Z,4.13
2022-12-25T16:05:16.652Z,3.17
2022-12-25T16:07:43.115Z,3.20
2022-12-25T16:10:16.247Z,3.20
2022-12-25T16:12:43.051Z,3.27
2022-12-25T16:15:11.298Z,3.38
2022-12-25T16:17:37.752Z,3.03
2022-12-25T16:20:04.467Z,3.20
2022-12-25T16:22:31.851Z,2.90
2022-12-25T16:24:58.343Z,3.00
2022-12-25T16:27:25.251Z,2.85
2022-12-25T16:29:51.720Z,3.00
2022-12-25T16:32:18.453Z,3.38
2022-12-25T16:34:45.112Z,3.22
2022-12-25T16:37:11.572Z,3.67
2022-12-25T16:39:38.436Z,3.42
2022-12-25T16:42:05.104Z,3.30
2022-12-25T16:44:31.615Z,3.95
2022-12-25T16:46:58.297Z,3.67
2022-12-25T16:49:24.819Z,3.47
2022-12-25T16:51:51.315Z,3.47
2022-12-25T16:54:18.097Z,3.50
2022-12-25T16:56:44.555Z,4.35
2022-12-25T16:59:11.293Z,3.83
2022-12-25T17:02:24.536Z,3.75
2022-12-25T17:04:51.075Z,3.75
2022-12-25T17:07:17.744Z,3.92
2022-12-25T17:09:47.351Z,4.13
2022-12-25T17:12:13.767Z,3.65
2022-12-25T17:14:40.196Z,3.42
2022-12-25T17:17:06.615Z,3.60
2022-12-25T17:19:33.079Z,4.00
2022-12-25T17:21:59.754Z,4.10
2022-12-25T17:24:27.027Z,3.80
2022-12-25T17:26:53.472Z,3.90
2022-12-25T17:29:22.449Z,3.65
2022-12-25T17:31:49.414Z,4.05
2022-12-25T17:34:18.888Z,3.63
2022-12-25T17:36:45.307Z,3.58
2022-12-25T17:39:11.832Z,3.40
2022-12-25T17:41:38.318Z,3.25
2022-12-25T17:44:04.989Z,3.40
2022-12-25T17:46:31.634Z,3.30
2022-12-25T17:48:59.153Z,3.47
2022-12-25T17:51:26.085Z,3.28
2022-12-25T17:53:54.093Z,3.20
2022-12-25T17:56:20.975Z,3.28
2022-12-25T17:58:51.640Z,3.15
2022-12-25T18:01:18.339Z,2.85
2022-12-25T18:03:45.156Z,3.10
2022-12-25T18:06:14.320Z,2.90
2022-12-25T18:08:41.246Z,3.00
2022-12-25T18:11:09.992Z,2.88
2022-12-25T18:13:37.040Z,2.90
2022-12-25T18:16:04.470Z,2.90
2022-12-25T18:18:31.243Z,2.78
2022-12-25T18:20:57.719Z,2.72
2022-12-25T18:23:24.756Z,2.92
2022-12-25T18:25:51.436Z,2.60
2022-12-25T18:28:18.575Z,2.60
2022-12-25T18:30:45.140Z,2.90
2022-12-25T18:33:11.798Z,2.67
2022-12-25T18:35:39.249Z,2.40
2022-12-25T18:38:05.984Z,2.50
2022-12-25T18:40:32.537Z,2.75
2022-12-25T18:43:03.236Z,2.72
2022-12-25T18:45:30.498Z,2.72
2022-12-25T18:47:56.977Z,2.47
2022-12-25T18:50:23.465Z,2.47
2022-12-25T18:52:51.580Z,3.13
2022-12-25T18:55:18.658Z,4.00
2022-12-25T18:57:45.111Z,4.55
2022-12-25T19:00:11.684Z,5.70
2022-12-25T19:02:38.173Z,5.10
2022-12-25T19:05:05.663Z,4.63
2022-12-25T19:07:32.180Z,4.80
2022-12-25T19:09:58.660Z,4.90
2022-12-25T19:12:25.116Z,5.47
2022-12-25T19:14:51.719Z,4.80
2022-12-25T19:17:18.251Z,4.50
2022-12-25T19:19:44.873Z,5.22
2022-12-25T19:22:11.532Z,4.55
2022-12-25T19:24:38.017Z,4.63
2022-12-25T19:27:04.556Z,4.88
2022-12-25T19:29:31.388Z,5.40
2022-12-25T19:31:57.988Z,5.82
2022-12-25T19:34:24.562Z,5.78
2022-12-25T19:36:51.074Z,6.68
2022-12-25T19:39:17.530Z,7.85
2022-12-25T19:41:44.528Z,13.25
2022-12-25T19:44:11.369Z,17.40
2022-12-25T19:46:40.370Z,21.98
2022-12-25T19:49:07.720Z,28.30
2022-12-25T19:51:39.270Z,36.03
2022-12-25T19:54:05.949Z,46.92
2022-12-25T19:56:32.621Z,54.70
2022-12-25T19:58:59.289Z,57.75
2022-12-25T20:01:27.199Z,64.65
2022-12-25T20:03:54.027Z,74.53
2022-12-25T20:06:25.922Z,78.53
2022-12-25T20:08:57.264Z,87.63
2022-12-25T20:11:25.040Z,91.15
2022-12-25T20:13:51.587Z,93.93
2022-12-25T20:16:18.136Z,93.97
2022-12-25T20:18:44.611Z,100.18
2022-12-25T20:21:14.005Z,99.90
2022-12-25T20:23:41.606Z,100.15
2022-12-25T20:26:08.134Z,100.57
2022-12-25T20:28:35.193Z,97.82
2022-12-25T20:31:33.316Z,98.00
2022-12-25T20:34:04.021Z,98.25
2022-12-25T20:36:36.291Z,96.63
2022-12-25T20:39:04.018Z,92.38
2022-12-25T20:41:30.684Z,82.18
2022-12-25T20:43:57.287Z,82.15
2022-12-25T20:46:24.787Z,76.22
2022-12-25T20:48:52.749Z,70.18
2022-12-25T20:51:21.412Z,70.63
2022-12-25T20:53:47.977Z,67.43
2022-12-25T20:56:15.673Z,67.85
2022-12-25T20:58:42.180Z,64.20
2022-12-25T21:01:13.614Z,66.07
2022-12-25T21:03:40.473Z,64.32
2022-12-25T21:06:07.360Z,64.85
2022-12-25T21:08:33.967Z,56.90
2022-12-25T21:11:00.876Z,51.80
2022-12-25T21:13:29.379Z,53.17
2022-12-25T21:15:56.363Z,52.85
2022-12-25T21:18:23.547Z,54.22
2022-12-25T21:20:52.172Z,52.40
2022-12-25T21:23:18.812Z,52.50
2022-12-25T21:25:45.724Z,52.42
2022-12-25T21:28:12.470Z,50.85
2022-12-25T21:30:39.004Z,51.00
2022-12-25T21:33:23.954Z,49.75
2022-12-25T21:35:50.443Z,47.38
2022-12-25T21:38:17.446Z,47.60
2022-12-25T21:40:43.933Z,46.10
2022-12-25T21:43:11.550Z,46.17
2022-12-25T21:45:38.022Z,46.10
2022-12-25T21:48:04.672Z,46.05
2022-12-25T21:50:49.654Z,44.78
2022-12-25T21:53:16.785Z,41.78
2022-12-25T21:55:43.277Z,42.35
2022-12-25T21:58:09.739Z,42.65
2022-12-25T22:00:36.194Z,42.40
2022-12-25T22:03:02.801Z,40.97
2022-12-25T22:05:48.011Z,40.03
2022-12-25T22:08:14.536Z,38.92
2022-12-25T22:10:41.018Z,38.75
2022-12-25T22:13:27.658Z,37.03
2022-12-25T22:16:20.616Z,36.97
2022-12-25T22:19:05.756Z,35.75
2022-12-25T22:21:32.233Z,35.70
2022-12-25T22:23:58.711Z,34.60
2022-12-25T22:26:25.170Z,33.67
2022-12-25T22:28:51.630Z,33.17
2022-12-25T22:31:18.156Z,32.50
2022-12-25T22:33:44.643Z,31.67
2022-12-25T22:36:11.104Z,33.20
2022-12-25T22:38:37.575Z,31.35
2022-12-25T22:41:07.212Z,32.65
2022-12-25T22:44:06.765Z,44.58
2022-12-25T22:46:20.143Z,49.10
2022-12-25T22:48:46.615Z,65.43
2022-12-25T22:51:13.063Z,78.45
2022-12-25T22:53:39.529Z,80.82
2022-12-25T22:56:08.211Z,84.53
2022-12-25T22:58:34.718Z,87.18
2022-12-25T23:01:01.348Z,84.53
2022-12-25T23:03:27.899Z,84.38
2022-12-25T23:05:55.577Z,84.57
2022-12-25T23:08:22.931Z,83.07
2022-12-25T23:10:49.412Z,81.47
2022-12-25T23:13:34.764Z,83.30
2022-12-25T23:16:01.282Z,86.22
2022-12-25T23:18:46.162Z,77.05
2022-12-25T23:21:35.093Z,79.72
2022-12-25T23:24:40.345Z,78.38
2022-12-25T23:27:06.813Z,75.13
2022-12-25T23:29:36.026Z,72.97
2022-12-25T23:32:10.219Z,75.80
2022-12-25T23:34:37.421Z,75.15
2022-12-25T23:37:04.012Z,72.78
2022-12-25T23:39:30.624Z,72.75
2022-12-25T23:41:57.485Z,69.35
2022-12-25T23:44:26.301Z,68.90
2022-12-25T23:46:53.706Z,66.90
2022-12-25T23:49:21.431Z,68.75
2022-12-25T23:51:47.901Z,65.47
2022-12-25T23:54:19.357Z,64.28
2022-12-25T23:56:45.811Z,63.67
2022-12-25T23:59:12.738Z,61.58
